Main page
METAR-TAF:

METAR-TAF

Airports :

Marathon Aerodrome

Marathon, Ontario, Canada

latitude: 48-45-26N, longitude: 086-20-45W, elevation: 315 m

Current weather observation

The report was made 51 minutes ago, at 21:00 UTC
Wind 9 kt from the South with gusts up to 22 kt, varying between Southeast and South/Southwest
Temperature 5°C
Humidity 48%
Pressure 1011 hPa
Visibility: 24.1 km
Few clouds at a height of 28000 ft

METAR: CYSP 012100Z 19009G22KT 140V210 15SM FEW280 05/M05 A2984 RMK CI1 SLP127

Time: 16:51 (21:51 UTC)

Forecast

The report was made 2 hours and 11 minutes ago, at 19:40 UTC
Forecast valid from 01 at 20 UTC to 01 at 22 UTC
Wind 10 kt from the South with gusts up to 20 kt
Visibility: 10 km
Scattered clouds at a height of 18000 ft

TAF: CYSP 011940Z 0120/0122 19010G20KT P6SM SCT180 RMK NXT FCST BY 021500Z

Weather observations and forecasts of more than 4000 airports (METAR and TAF reports).

The available stations are represented by yellow and red dots on the map.

Hover mouse over dot to see the name of the station.

Then click to see weather observations and forecasts.

To change the map : click on the green buttons with a black cross to zoom in, on the green button with a dash to zoom out, or on the green arrows for adjacent maps.


METAR-TAF: